Terminal Aerodrome Forecast
Issued by NWS

Home | Current Version | Previous Version | Text Only | Print | Product List | Glossary Off
Versions: 1 2 3 4 5 6 7 8 9 10 11 12 13 14

000
FTUS45 KGGW 221720
TAFOLF
TAF
KOLF 221720Z 2218/2318 03008KT 3SM -SHSN BR SCT015 OVC025
     FM222100 04006KT P6SM SCT015 OVC025
     FM222300 05005KT P6SM OVC035
     FM230400 09004KT P6SM SCT025 OVC035
     FM231400 07005KT P6SM SCT015 OVC025=

USA.gov is the U.S. government's official web portal to all federal, state and local government web resources and services.